Time;durP1;ratioP1;P1;durP2;ratioP2;P2;SDS_P1;SDS_P2;PMS_P1;PMS_P2;Temp;Humidity;BMP_temperature;BMP_pressure;BME280_temperature;BME280_humidity;BME280_pressure;Samples;Min_cycle;Max_cycle;Signal;HPM_P1;HPM_P2
2022/06/13 00:01:30;;;;;;;7.40;1.80;;;14.70;99.90;;;;;;6251940;22;20020;-88
2022/06/13 00:03:56;;;;;;;3.85;1.38;;;14.70;99.90;;;;;;6259461;22;20318;-89
2022/06/13 00:06:22;;;;;;;5.32;1.48;;;14.70;99.90;;;;;;6256307;22;20050;-92
2022/06/13 00:09:22;;;;;;;5.32;1.65;;;14.60;99.90;;;;;;6280295;22;20016;-91
2022/06/13 00:43:15;;;;;;;3.80;1.20;;;14.40;99.90;;;;;;6313629;22;20019;-89
2022/06/13 00:45:42;;;;;;;5.22;1.83;;;14.30;99.90;;;;;;6236597;22;20483;-89
2022/06/13 00:48:12;;;;;;;4.70;1.60;;;14.30;99.90;;;;;;6262978;22;20039;-90
2022/06/13 00:50:50;;;;;;;7.47;1.90;;;14.40;99.90;;;;;;6262774;22;20038;-91
2022/06/13 00:53:21;;;;;;;4.97;2.28;;;14.30;99.90;;;;;;6262934;22;20452;-91
2022/06/13 00:56:04;;;;;;;4.60;1.83;;;14.30;99.90;;;;;;6265379;22;20018;-90
2022/06/13 00:58:39;;;;;;;6.75;2.22;;;14.30;99.90;;;;;;6272290;22;20023;-90
2022/06/13 01:06:21;;;;;;;4.93;1.60;;;14.30;99.90;;;;;;6226338;23;20042;-90
2022/06/13 01:09:10;;;;;;;4.85;1.75;;;14.30;99.90;;;;;;6199579;23;20071;-88
2022/06/13 01:12:01;;;;;;;5.03;1.65;;;14.30;99.90;;;;;;6226480;23;20449;-89
2022/06/13 01:15:05;;;;;;;5.18;1.73;;;14.30;99.90;;;;;;6230709;23;20388;-88
2022/06/13 01:18:22;;;;;;;7.05;2.17;;;14.30;99.90;;;;;;6224985;23;20020;-88
2022/06/13 01:21:30;;;;;;;5.78;1.60;;;14.30;99.90;;;;;;6166649;23;20047;-89
2022/06/13 01:24:19;;;;;;;4.30;1.70;;;14.30;99.90;;;;;;6201725;23;20046;-90
2022/06/13 02:01:40;;;;;;;;;;;;;;;;;;;;;
2022/06/13 03:16:28;;;;;;;4.55;1.52;;;14.40;99.90;;;;;;6310642;22;20445;-93
2022/06/13 03:19:22;;;;;;;4.97;1.52;;;14.40;99.90;;;;;;6200341;22;20023;-92
2022/06/13 03:21:59;;;;;;;5.03;1.48;;;14.40;99.90;;;;;;6257641;22;20019;-91
2022/06/13 03:24:40;;;;;;;4.05;1.60;;;14.40;99.90;;;;;;6258662;22;20026;-91
2022/06/13 03:27:17;;;;;;;3.70;1.40;;;14.40;99.90;;;;;;6257441;22;20024;-91
2022/06/13 03:29:50;;;;;;;4.55;1.30;;;14.30;99.90;;;;;;6258427;22;20019;-92
2022/06/13 03:32:30;;;;;;;5.32;1.45;;;14.30;99.90;;;;;;6284817;22;20019;-93
2022/06/13 03:35:11;;;;;;;5.45;1.85;;;14.30;99.90;;;;;;6311496;22;20081;-91
2022/06/13 03:37:49;;;;;;;5.18;1.60;;;14.30;99.90;;;;;;6284783;22;20317;-90
2022/06/13 03:40:22;;;;;;;5.15;1.50;;;14.30;99.90;;;;;;6257573;22;20094;-92
2022/06/13 03:42:56;;;;;;;4.53;1.50;;;14.30;99.90;;;;;;6259844;22;20153;-88
2022/06/13 03:45:27;;;;;;;5.18;1.50;;;14.30;99.90;;;;;;6283451;22;20022;-91
2022/06/13 03:48:03;;;;;;;4.95;1.60;;;14.20;99.90;;;;;;6257302;22;20027;-92
2022/06/13 03:50:52;;;;;;;3.53;1.65;;;14.20;99.90;;;;;;6258759;22;20069;-90
2022/06/13 03:53:39;;;;;;;4.65;1.27;;;14.20;99.90;;;;;;6287001;22;20019;-90
2022/06/13 03:56:22;;;;;;;5.30;2.03;;;14.20;99.90;;;;;;6260988;22;20026;-90
2022/06/13 03:58:53;;;;;;;4.00;1.80;;;14.20;99.90;;;;;;6312466;22;20015;-92
2022/06/13 04:01:34;;;;;;;4.03;1.40;;;14.20;99.90;;;;;;6286478;22;20010;-93
2022/06/13 04:05:04;;;;;;;;;;;;;;;;;;;;;
2022/06/13 04:07:41;;;;;;;4.18;1.40;;;14.10;99.90;;;;;;6285280;22;20015;-91
2022/06/13 04:10:23;;;;;;;5.18;1.48;;;14.10;99.90;;;;;;6285725;22;20012;-91
2022/06/13 04:13:18;;;;;;;3.45;1.25;;;14.20;99.90;;;;;;6311375;22;20015;-91
2022/06/13 04:16:04;;;;;;;3.92;1.35;;;14.20;99.90;;;;;;6260923;22;20019;-92
2022/06/13 04:19:13;;;;;;;5.68;1.25;;;14.10;99.90;;;;;;6312722;22;20019;-92
2022/06/13 04:22:11;;;;;;;3.83;1.23;;;14.20;99.90;;;;;;6260808;22;20090;-91
2022/06/13 04:25:05;;;;;;;3.63;1.30;;;14.20;99.90;;;;;;6177186;22;20015;-91
2022/06/13 04:27:51;;;;;;;3.78;1.40;;;14.20;99.90;;;;;;6260398;22;20019;-91
2022/06/13 04:31:23;;;;;;;;;;;;;;;;;;;;;
2022/06/13 04:33:59;;;;;;;2.50;1.10;;;14.30;99.90;;;;;;6267996;22;20018;-92
2022/06/13 04:36:34;;;;;;;3.67;1.52;;;14.30;99.90;;;;;;6313836;22;20023;-90
2022/06/13 04:39:32;;;;;;;3.78;1.20;;;14.30;99.90;;;;;;6263874;22;20019;-90
2022/06/13 04:42:00;;;;;;;4.38;1.08;;;14.30;99.90;;;;;;6260288;22;20448;-91
2022/06/13 04:45:06;;;;;;;4.43;1.27;;;14.30;99.90;;;;;;6260975;22;20466;-90
2022/06/13 05:19:36;;;;;;;1.55;0.30;;;14.20;99.90;;;;;;6273246;22;20085;-87
2022/06/13 05:22:20;;;;;;;1.20;0.30;;;14.00;99.90;;;;;;6251082;22;20387;-90
2022/06/13 05:25:22;;;;;;;1.30;0.30;;;13.80;99.90;;;;;;6288653;22;20020;-92
2022/06/13 05:27:48;;;;;;;0.60;0.20;;;13.70;99.90;;;;;;6251427;22;20016;-90
2022/06/13 05:30:15;;;;;;;1.23;0.30;;;13.60;99.90;;;;;;6250561;22;20309;-90
2022/06/13 05:32:42;;;;;;;0.68;0.32;;;13.50;99.90;;;;;;6250576;22;20016;-90
2022/06/13 05:35:17;;;;;;;1.33;0.70;;;13.50;99.90;;;;;;6250756;22;20340;-91
2022/06/13 05:37:43;;;;;;;0.70;0.30;;;13.50;99.90;;;;;;6252872;22;20016;-92
2022/06/13 05:45:22;;;;;;;1.35;0.43;;;13.60;99.90;;;;;;6244798;22;20020;-92
2022/06/13 05:47:52;;;;;;;1.52;0.47;;;13.70;99.90;;;;;;6196050;23;20035;-91
2022/06/13 05:50:29;;;;;;;1.98;0.57;;;13.70;99.90;;;;;;6198397;23;20068;-92
2022/06/13 05:52:58;;;;;;;2.28;0.70;;;13.90;99.90;;;;;;6194530;23;20091;-88
2022/06/13 05:55:24;;;;;;;2.83;0.80;;;13.90;99.90;;;;;;6193365;23;20327;-88
2022/06/13 05:57:50;;;;;;;1.60;0.60;;;14.00;99.90;;;;;;6194193;23;20023;-89
2022/06/13 06:00:22;;;;;;;2.07;0.50;;;14.00;99.90;;;;;;6194788;23;20043;-90
2022/06/13 06:02:49;;;;;;;1.83;0.43;;;14.10;99.90;;;;;;6195265;23;20047;-90
2022/06/13 06:05:25;;;;;;;3.83;0.90;;;14.20;99.90;;;;;;6195182;23;20048;-88
2022/06/13 06:07:54;;;;;;;1.52;0.63;;;14.30;99.90;;;;;;6196480;23;20051;-89
2022/06/13 06:10:24;;;;;;;1.10;0.50;;;14.30;99.90;;;;;;6194808;23;20024;-90
2022/06/13 06:15:26;;;;;;;2.05;0.60;;;14.30;99.90;;;;;;6227815;22;20020;-91
2022/06/13 06:17:52;;;;;;;4.13;0.65;;;14.40;99.90;;;;;;6189785;23;20078;-88
2022/06/13 06:20:20;;;;;;;1.98;0.63;;;14.50;99.90;;;;;;6189352;23;20012;-87
2022/06/13 06:22:46;;;;;;;2.25;0.43;;;14.90;99.90;;;;;;6215491;23;20016;-87
2022/06/13 06:25:12;;;;;;;1.17;0.50;;;15.50;99.90;;;;;;6215680;23;20342;-89
2022/06/13 06:27:38;;;;;;;1.75;0.40;;;15.60;99.90;;;;;;6215598;23;20449;-88
2022/06/13 06:30:04;;;;;;;1.20;0.43;;;15.50;99.90;;;;;;6189792;23;20017;-89
2022/06/13 06:32:30;;;;;;;;;;;15.30;99.90;;;;;;6189778;23;20079;-89
2022/06/13 06:34:55;;;;;;;1.38;0.40;;;15.10;99.90;;;;;;6189571;23;19920;-91
2022/06/13 06:37:21;;;;;;;1.80;0.47;;;14.90;99.90;;;;;;6189633;23;20008;-90
2022/06/13 06:39:47;;;;;;;2.80;0.50;;;14.90;99.90;;;;;;6214650;23;20027;-90
2022/06/13 06:42:13;;;;;;;2.13;0.57;;;14.70;99.90;;;;;;6189307;23;20023;-89
2022/06/13 06:44:39;;;;;;;2.08;0.40;;;14.50;99.90;;;;;;6189133;23;20009;-88
2022/06/13 06:47:06;;;;;;;1.33;0.60;;;14.40;99.90;;;;;;6214029;23;20020;-89
2022/06/13 06:49:37;;;;;;;1.95;0.52;;;14.30;99.90;;;;;;6214266;23;20644;-89
2022/06/13 06:52:05;;;;;;;2.17;0.40;;;14.30;99.90;;;;;;6214095;23;20048;-89
2022/06/13 07:00:01;;;;;;;1.52;0.50;;;14.20;99.90;;;;;;6214435;23;20120;-89
2022/06/13 07:02:29;;;;;;;0.73;0.32;;;14.20;99.90;;;;;;6189260;23;20016;-92
2022/06/13 07:05:05;;;;;;;1.45;0.50;;;14.20;99.90;;;;;;6189159;23;20150;-88
2022/06/13 07:07:31;;;;;;;1.08;0.40;;;14.30;99.90;;;;;;6214369;23;20095;-88
2022/06/13 07:09:57;;;;;;;1.17;0.40;;;14.30;99.90;;;;;;6189314;23;20457;-92
2022/06/13 07:12:24;;;;;;;2.53;0.80;;;14.40;99.90;;;;;;6189404;23;20446;-90
2022/06/13 07:14:50;;;;;;;1.30;0.40;;;14.40;99.90;;;;;;6188791;23;20013;-92
2022/06/13 07:17:15;;;;;;;2.03;0.70;;;14.40;99.90;;;;;;6214352;23;20440;-91
2022/06/13 07:19:45;;;;;;;2.50;0.60;;;14.50;99.90;;;;;;6216489;23;20016;-94
2022/06/13 07:22:14;;;;;;;2.45;1.05;;;14.60;99.90;;;;;;6216150;23;20027;-92
2022/06/13 07:24:40;;;;;;;2.50;0.30;;;14.60;99.90;;;;;;6214645;23;20012;-90
2022/06/13 07:27:06;;;;;;;2.60;0.52;;;14.70;99.90;;;;;;6214427;23;20350;-90
2022/06/13 07:29:32;;;;;;;2.22;0.50;;;14.80;99.90;;;;;;6214268;23;20024;-89
2022/06/13 07:32:05;;;;;;;1.23;0.50;;;15.10;99.90;;;;;;6189040;23;20017;-89
2022/06/13 07:34:33;;;;;;;1.42;0.60;;;15.40;99.90;;;;;;6189300;23;20009;-88
2022/06/13 07:37:01;;;;;;;1.15;0.50;;;15.60;99.90;;;;;;6214099;23;20017;-91
2022/06/13 07:39:27;;;;;;;1.40;0.50;;;15.60;99.90;;;;;;6189188;23;20024;-91
2022/06/13 07:41:54;;;;;;;2.45;0.60;;;15.50;99.90;;;;;;6214225;23;20012;-91
2022/06/13 07:44:27;;;;;;;2.72;0.50;;;15.50;99.90;;;;;;6189375;23;20012;-94
2022/06/13 07:46:53;;;;;;;1.70;0.50;;;15.50;99.90;;;;;;6214493;23;20059;-93
2022/06/13 07:49:20;;;;;;;1.58;0.38;;;15.50;99.90;;;;;;6188988;23;20012;-92
2022/06/13 07:51:49;;;;;;;3.03;0.30;;;15.50;99.90;;;;;;6214061;23;20327;-93
2022/06/13 07:54:15;;;;;;;1.42;0.30;;;15.50;99.90;;;;;;6188912;23;20017;-90
2022/06/13 07:56:42;;;;;;;1.20;0.20;;;15.40;99.90;;;;;;6213873;23;20043;-92
2022/06/13 07:59:11;;;;;;;1.35;0.65;;;15.40;99.90;;;;;;6214015;23;20052;-91
2022/06/13 08:01:37;;;;;;;1.10;0.32;;;15.30;99.90;;;;;;6189068;23;20415;-91
2022/06/13 08:04:02;;;;;;;0.60;0.20;;;15.20;99.90;;;;;;6213863;23;20024;-91
2022/06/13 08:06:28;;;;;;;1.35;0.57;;;15.20;99.90;;;;;;6188844;23;20021;-92
2022/06/13 08:08:54;;;;;;;1.27;0.38;;;15.20;99.90;;;;;;6213981;23;20021;-92
2022/06/13 08:11:29;;;;;;;1.13;0.20;;;15.30;99.90;;;;;;6213838;23;20021;-91
2022/06/13 08:13:55;;;;;;;2.00;0.75;;;15.40;99.90;;;;;;6189165;23;20013;-91
2022/06/13 08:16:20;;;;;;;3.33;0.30;;;15.50;99.90;;;;;;6218814;23;20568;-93
2022/06/13 08:18:46;;;;;;;2.47;0.30;;;15.60;99.90;;;;;;6219045;23;20017;-91
2022/06/13 08:21:12;;;;;;;0.63;0.30;;;15.60;99.90;;;;;;6219145;23;20440;-90
2022/06/13 08:23:38;;;;;;;1.80;0.35;;;15.60;99.90;;;;;;6245722;23;20063;-88
2022/06/13 08:26:04;;;;;;;0.85;0.20;;;15.60;99.90;;;;;;6244414;23;20020;-88
2022/06/13 08:28:30;;;;;;;2.17;0.30;;;15.60;99.90;;;;;;6220886;23;20016;-90
2022/06/13 08:31:08;;;;;;;2.17;0.20;;;15.60;99.90;;;;;;6220944;23;20146;-90
2022/06/13 08:33:34;;;;;;;3.20;0.30;;;15.40;99.90;;;;;;6221056;23;20038;-90
2022/06/13 08:36:00;;;;;;;0.47;0.20;;;15.40;99.90;;;;;;6220783;23;20113;-92
2022/06/13 08:38:26;;;;;;;2.72;0.30;;;15.50;99.90;;;;;;6220882;23;20457;-88
2022/06/13 08:41:16;;;;;;;2.72;0.40;;;15.60;99.90;;;;;;6220616;23;20438;-88
2022/06/13 08:44:00;;;;;;;1.42;0.30;;;15.60;99.90;;;;;;6220450;23;20058;-89
2022/06/13 08:46:55;;;;;;;2.05;0.52;;;15.60;99.90;;;;;;6220887;23;20043;-90
2022/06/13 08:49:30;;;;;;;1.63;0.30;;;15.70;99.90;;;;;;6220810;23;20020;-89
2022/06/13 08:52:05;;;;;;;1.00;0.38;;;15.70;99.90;;;;;;6220381;23;20055;-88
2022/06/13 08:54:34;;;;;;;1.58;0.40;;;15.80;99.90;;;;;;6220366;23;20313;-89
2022/06/13 08:57:11;;;;;;;1.80;0.28;;;15.80;99.90;;;;;;6195269;23;20453;-91
2022/06/13 08:59:49;;;;;;;1.20;0.20;;;15.90;99.90;;;;;;6220610;23;20341;-90
2022/06/13 09:02:39;;;;;;;3.10;0.43;;;15.80;99.90;;;;;;6195686;23;20012;-90
2022/06/13 09:05:17;;;;;;;1.27;0.20;;;15.70;99.90;;;;;;6246244;23;20043;-90
2022/06/13 09:08:09;;;;;;;1.30;0.20;;;15.70;99.90;;;;;;6220370;23;20454;-92
2022/06/13 09:10:47;;;;;;;2.13;0.60;;;15.70;99.90;;;;;;6220529;23;20016;-89
2022/06/13 09:13:26;;;;;;;3.97;0.40;;;15.70;99.90;;;;;;6195333;23;20069;-91
2022/06/13 09:16:00;;;;;;;0.65;0.20;;;15.80;99.90;;;;;;6195326;23;20016;-91
2022/06/13 09:18:37;;;;;;;1.10;0.30;;;15.90;99.90;;;;;;6220254;23;20369;-89
2022/06/13 09:21:31;;;;;;;0.93;0.30;;;16.00;99.90;;;;;;6220695;23;20038;-89
2022/06/13 09:24:29;;;;;;;2.20;0.45;;;16.00;99.90;;;;;;6220217;23;20026;-89
2022/06/13 09:27:16;;;;;;;3.03;0.40;;;16.00;99.90;;;;;;6241315;23;20022;-91
2022/06/13 09:30:00;;;;;;;2.50;0.60;;;16.00;99.90;;;;;;6220207;23;20099;-88
2022/06/13 09:32:39;;;;;;;1.65;0.40;;;16.00;99.90;;;;;;6220205;23;20020;-89
2022/06/13 09:35:25;;;;;;;2.13;0.40;;;16.10;99.90;;;;;;6220015;23;20468;-90
2022/06/13 09:38:03;;;;;;;1.73;0.70;;;16.10;99.90;;;;;;6194859;23;20020;-89
2022/06/13 09:40:49;;;;;;;3.60;0.40;;;16.20;99.90;;;;;;6220069;23;20023;-90
2022/06/13 09:43:33;;;;;;;1.20;0.20;;;16.30;99.90;;;;;;6220388;23;20038;-88
2022/06/13 09:45:58;;;;;;;1.38;0.20;;;16.30;99.90;;;;;;6220264;23;20493;-90
2022/06/13 09:48:24;;;;;;;2.23;0.20;;;16.30;99.90;;;;;;6220357;23;20055;-88
2022/06/13 09:51:05;;;;;;;2.78;0.50;;;16.40;99.90;;;;;;6222076;23;20099;-88
2022/06/13 09:53:36;;;;;;;1.15;0.20;;;16.40;99.90;;;;;;6225537;23;20087;-92
2022/06/13 09:56:29;;;;;;;2.00;0.40;;;16.40;99.90;;;;;;6225520;23;20020;-91
2022/06/13 09:59:21;;;;;;;2.90;0.40;;;16.40;99.90;;;;;;6233109;23;20019;-91
2022/06/13 10:02:04;;;;;;;2.20;0.32;;;16.50;99.90;;;;;;6220336;23;20515;-88
2022/06/13 10:04:32;;;;;;;3.38;0.60;;;16.40;99.90;;;;;;6195281;23;20450;-92
2022/06/13 10:07:10;;;;;;;2.22;0.50;;;16.10;99.90;;;;;;6220155;23;20023;-90
2022/06/13 10:09:47;;;;;;;1.80;1.23;;;16.00;99.90;;;;;;6220063;23;20016;-90
2022/06/13 10:12:25;;;;;;;0.70;0.35;;;16.10;99.90;;;;;;6219863;23;20023;-89
2022/06/13 10:15:08;;;;;;;2.28;0.35;;;16.10;99.90;;;;;;6219891;23;20016;-91
2022/06/13 10:17:56;;;;;;;3.35;0.38;;;16.30;99.90;;;;;;6219633;23;20023;-91
2022/06/13 10:20:31;;;;;;;2.00;0.60;;;16.40;99.90;;;;;;6219616;23;20018;-91
2022/06/13 10:22:59;;;;;;;2.65;0.40;;;16.30;99.90;;;;;;6219527;23;20484;-91
2022/06/13 10:25:45;;;;;;;1.55;0.52;;;16.30;99.90;;;;;;6219691;23;20012;-94
2022/06/13 10:28:25;;;;;;;1.50;0.50;;;16.40;99.90;;;;;;6219693;23;20031;-91
2022/06/13 10:31:15;;;;;;;1.30;0.32;;;16.40;99.90;;;;;;6219671;23;20016;-91
2022/06/13 10:33:41;;;;;;;1.75;0.40;;;16.40;99.90;;;;;;6219539;23;20353;-89
2022/06/13 10:36:30;;;;;;;2.73;0.57;;;16.30;99.90;;;;;;6219700;23;20027;-91
2022/06/13 10:39:09;;;;;;;1.27;0.45;;;16.30;99.90;;;;;;6219406;23;20078;-90
2022/06/13 10:41:39;;;;;;;1.85;0.35;;;16.30;99.90;;;;;;6194482;23;20047;-92
2022/06/13 10:44:09;;;;;;;1.20;0.40;;;16.50;99.90;;;;;;6219828;23;20020;-92
2022/06/13 10:46:35;;;;;;;3.13;1.13;;;16.60;99.90;;;;;;6194210;23;20023;-91
2022/06/13 10:49:11;;;;;;;2.70;0.40;;;16.70;99.90;;;;;;6193120;23;20020;-92
2022/06/13 10:51:40;;;;;;;2.38;0.50;;;16.80;99.90;;;;;;6193416;23;20016;-91
2022/06/13 10:54:21;;;;;;;3.70;0.80;;;16.80;99.90;;;;;;6244682;23;20023;-91
2022/06/13 10:57:03;;;;;;;3.05;0.40;;;16.60;99.90;;;;;;6220002;23;20079;-91
2022/06/13 10:59:32;;;;;;;2.65;0.45;;;16.50;99.90;;;;;;6218817;23;20016;-92
2022/06/13 11:02:21;;;;;;;2.63;0.60;;;16.60;99.90;;;;;;6193194;23;20052;-95
2022/06/13 11:05:05;;;;;;;2.40;0.52;;;16.60;99.90;;;;;;6219675;23;20024;-94
2022/06/13 11:07:33;;;;;;;2.67;0.52;;;16.60;99.90;;;;;;6194539;23;20342;-93
2022/06/13 11:09:59;;;;;;;1.98;0.50;;;16.50;99.90;;;;;;6219818;23;20437;-93
2022/06/13 11:12:33;;;;;;;2.63;0.40;;;16.40;99.90;;;;;;6194535;23;20074;-91
2022/06/13 11:23:55;;;;;;;4.45;0.85;;;16.80;99.90;;;;;;6219490;23;20086;-94
2022/06/13 11:29:16;;;;;;;5.95;1.17;;;16.80;99.90;;;;;;6219462;23;20031;-92
2022/06/13 11:32:00;;;;;;;3.33;0.55;;;17.00;99.90;;;;;;6219330;23;20027;-93
2022/06/13 11:34:28;;;;;;;3.75;1.02;;;17.10;99.90;;;;;;6219346;23;20165;-93
2022/06/13 11:37:23;;;;;;;1.17;0.30;;;17.10;99.90;;;;;;6219213;23;20028;-93
2022/06/13 11:39:51;;;;;;;5.20;0.60;;;17.00;99.90;;;;;;6194332;23;20070;-93
2022/06/13 11:42:26;;;;;;;3.17;0.60;;;17.10;99.90;;;;;;6245171;23;20055;-92
2022/06/13 11:45:01;;;;;;;2.60;0.50;;;17.20;99.90;;;;;;6219952;23;20019;-94
2022/06/13 11:47:56;;;;;;;3.85;0.47;;;17.30;99.90;;;;;;6194267;23;20095;-91
2022/06/13 11:50:29;;;;;;;2.88;0.32;;;17.50;99.90;;;;;;6220124;23;20023;-93
2022/06/13 11:56:19;;;;;;;4.78;0.55;;;17.50;99.90;;;;;;6219186;23;20496;-93
2022/06/13 11:59:15;;;;;;;2.38;0.38;;;17.30;99.90;;;;;;6200790;23;20042;-89
2022/06/13 12:01:45;;;;;;;0.70;0.25;;;17.10;99.90;;;;;;6220724;23;20016;-92
2022/06/13 12:04:13;;;;;;;;;;;17.10;99.90;;;;;;6220271;23;20016;-91
2022/06/13 12:06:46;;;;;;;0.80;0.20;;;17.20;99.90;;;;;;6219214;23;19916;-92
2022/06/13 12:09:31;;;;;;;1.98;0.32;;;17.30;99.90;;;;;;6195031;23;20023;-90
2022/06/13 12:12:08;;;;;;;3.67;0.98;;;17.60;99.90;;;;;;6244884;23;20090;-92
2022/06/13 12:15:12;;;;;;;1.00;0.22;;;17.80;99.90;;;;;;6218838;22;20016;-93
2022/06/13 12:18:50;;;;;;;0.68;0.20;;;18.00;99.90;;;;;;6191223;23;20079;-91
2022/06/13 12:21:38;;;;;;;1.30;0.30;;;18.30;99.90;;;;;;6212317;23;20022;-92
2022/06/13 12:24:39;;;;;;;1.77;0.32;;;18.50;99.90;;;;;;6191220;23;20027;-92
2022/06/13 12:27:25;;;;;;;1.90;0.45;;;18.50;99.90;;;;;;6191179;23;20017;-92
2022/06/13 12:30:11;;;;;;;1.65;0.30;;;18.30;99.90;;;;;;6191190;23;20012;-93
2022/06/13 12:32:52;;;;;;;1.38;0.22;;;18.20;99.90;;;;;;6191885;23;20016;-92
2022/06/13 12:35:38;;;;;;;1.85;0.40;;;18.00;99.90;;;;;;6190990;23;20016;-93
2022/06/13 12:38:41;;;;;;;1.77;0.35;;;17.80;99.90;;;;;;6191008;23;20016;-91
2022/06/13 12:41:37;;;;;;;0.95;0.30;;;17.70;99.90;;;;;;6190984;23;20026;-91
2022/06/13 12:44:38;;;;;;;0.65;0.30;;;17.60;99.90;;;;;;6191333;23;20013;-93
2022/06/13 12:47:43;;;;;;;1.70;0.40;;;17.50;99.90;;;;;;6186601;23;20020;-93
2022/06/13 12:50:33;;;;;;;1.17;0.20;;;17.40;99.90;;;;;;6191492;23;20027;-91
2022/06/13 12:53:11;;;;;;;2.08;0.55;;;17.40;99.90;;;;;;6191281;23;20103;-92
2022/06/13 12:55:55;;;;;;;0.98;0.20;;;17.50;99.90;;;;;;6190810;23;20031;-92
2022/06/13 12:58:21;;;;;;;1.35;0.20;;;17.70;99.90;;;;;;6191259;23;20013;-94
2022/06/13 13:03:57;;;;;;;1.05;0.20;;;17.90;99.90;;;;;;6245899;22;20494;-90
2022/06/13 13:06:52;;;;;;;2.80;0.30;;;17.80;99.90;;;;;;6226209;22;20020;-91
2022/06/13 13:09:44;;;;;;;1.45;0.40;;;17.70;99.90;;;;;;6189416;22;20016;-90
2022/06/13 13:12:33;;;;;;;0.55;0.20;;;17.50;99.90;;;;;;6225076;22;20031;-91
2022/06/13 13:15:05;;;;;;;1.23;0.32;;;17.30;99.90;;;;;;6225917;22;20465;-89
2022/06/13 13:17:52;;;;;;;1.67;0.30;;;17.20;99.90;;;;;;6225433;22;20019;-90
2022/06/13 13:20:37;;;;;;;1.40;0.43;;;17.20;99.90;;;;;;6225742;22;20019;-88
2022/06/13 13:23:48;;;;;;;1.30;0.30;;;17.20;99.90;;;;;;6225472;22;20322;-89
2022/06/13 13:26:21;;;;;;;1.20;0.40;;;17.20;99.90;;;;;;6167252;22;20453;-90
2022/06/13 13:29:05;;;;;;;1.55;0.57;;;17.10;99.90;;;;;;6226391;22;20015;-91
2022/06/13 13:32:23;;;;;;;0.93;0.30;;;17.20;99.90;;;;;;6225976;22;20020;-90
2022/06/13 13:35:07;;;;;;;2.47;0.40;;;17.30;99.90;;;;;;6214486;22;20061;-90
2022/06/13 13:37:41;;;;;;;2.08;0.35;;;17.30;99.90;;;;;;6225508;22;20016;-91
2022/06/13 13:40:35;;;;;;;2.83;0.63;;;17.30;99.90;;;;;;6225510;22;20016;-92
2022/06/13 13:43:21;;;;;;;0.80;0.28;;;17.30;99.90;;;;;;6225576;22;20012;-91
2022/06/13 13:46:05;;;;;;;3.63;0.60;;;17.30;99.90;;;;;;6225165;22;20020;-90
2022/06/13 13:51:54;;;;;;;1.13;0.30;;;17.30;99.90;;;;;;6240414;22;20033;-92
2022/06/13 13:54:42;;;;;;;2.25;0.40;;;17.20;99.90;;;;;;6152702;23;20105;-91
2022/06/13 13:57:16;;;;;;;2.60;0.40;;;17.10;99.90;;;;;;6190361;23;20021;-91
2022/06/13 13:59:49;;;;;;;1.27;0.40;;;17.20;99.90;;;;;;6190269;23;20383;-90
2022/06/13 14:02:34;;;;;;;2.03;0.50;;;17.30;99.90;;;;;;6189846;23;20020;-91
2022/06/13 14:07:57;;;;;;;1.13;0.40;;;17.60;99.90;;;;;;6280477;22;20050;-90
2022/06/13 14:10:32;;;;;;;1.02;0.32;;;17.60;99.90;;;;;;6250543;22;20420;-90
2022/06/13 14:13:16;;;;;;;1.20;0.20;;;17.60;99.90;;;;;;6250542;22;20098;-90
2022/06/13 14:15:48;;;;;;;1.92;0.20;;;17.50;99.90;;;;;;6250004;22;20060;-90
2022/06/13 14:31:11;;;;;;;2.60;0.40;;;18.00;99.90;;;;;;6216318;22;20028;-92
2022/06/13 14:36:53;;;;;;;1.65;0.30;;;18.20;99.90;;;;;;6214789;23;20058;-91
2022/06/13 14:39:46;;;;;;;2.50;0.40;;;18.10;99.90;;;;;;6189859;23;20023;-93
2022/06/13 14:42:23;;;;;;;0.93;0.20;;;18.00;99.90;;;;;;6189953;23;20019;-94
2022/06/13 14:45:10;;;;;;;;;;;18.00;99.90;;;;;;6190354;23;20446;-91
2022/06/13 14:48:14;;;;;;;1.52;0.30;;;18.00;99.90;;;;;;6189813;23;19916;-89
2022/06/13 14:50:43;;;;;;;1.38;0.30;;;17.90;99.90;;;;;;6158380;23;20510;-95
2022/06/13 14:53:38;;;;;;;1.27;0.30;;;17.80;99.90;;;;;;6184639;23;20067;-90
2022/06/13 14:56:16;;;;;;;1.80;0.30;;;17.70;99.90;;;;;;6189835;23;20008;-92
2022/06/13 14:58:42;;;;;;;1.50;0.30;;;17.60;99.90;;;;;;6195012;23;20100;-88
2022/06/13 15:01:22;;;;;;;1.42;0.43;;;17.60;99.90;;;;;;6202471;23;20016;-94
2022/06/13 15:04:03;;;;;;;1.33;0.40;;;17.60;99.90;;;;;;6193953;23;20146;-93
2022/06/13 15:06:35;;;;;;;1.75;0.52;;;17.70;99.90;;;;;;6189637;23;20072;-92
2022/06/13 15:09:17;;;;;;;2.25;0.60;;;17.70;99.90;;;;;;6214789;23;20413;-93
2022/06/13 15:11:52;;;;;;;1.45;0.35;;;17.70;99.90;;;;;;6189675;23;20024;-90
2022/06/13 15:14:39;;;;;;;0.68;0.28;;;17.70;99.90;;;;;;6189607;23;20019;-92
2022/06/13 15:17:08;;;;;;;1.23;0.30;;;17.70;99.90;;;;;;6189766;23;20016;-92
2022/06/13 15:20:00;;;;;;;3.00;0.32;;;17.80;99.90;;;;;;6189156;23;20016;-92
2022/06/13 15:39:18;;;;;;;1.27;0.20;;;17.60;99.90;;;;;;6309774;22;20023;-89
2022/06/13 19:54:03;;;;;;;1.73;0.40;;;14.90;99.90;;;;;;6275428;22;20104;-90
2022/06/13 20:09:36;;;;;;;1.65;0.50;;;14.80;99.90;;;;;;6249704;22;20019;-91
2022/06/13 20:12:03;;;;;;;4.45;0.50;;;14.80;99.90;;;;;;6224522;22;20442;-92
2022/06/13 20:18:04;;;;;;;1.33;0.45;;;14.80;99.90;;;;;;6271194;22;21526;-91
2022/06/13 20:20:33;;;;;;;1.52;0.55;;;14.70;99.90;;;;;;6219147;23;20128;-93
2022/06/13 20:22:59;;;;;;;1.23;0.50;;;14.70;99.90;;;;;;6220098;23;20027;-90
2022/06/13 20:25:26;;;;;;;2.40;0.70;;;14.60;99.90;;;;;;6221880;23;20012;-93
2022/06/13 20:27:52;;;;;;;1.92;0.50;;;14.60;99.90;;;;;;6222080;23;20116;-94
2022/06/13 20:30:21;;;;;;;1.98;0.45;;;14.50;99.90;;;;;;6231974;23;20024;-91
2022/06/13 20:33:17;;;;;;;2.00;0.50;;;14.50;99.90;;;;;;6238655;23;20020;-91
2022/06/13 23:10:11;;;;;;;2.33;0.70;;;12.70;99.90;;;;;;6245949;22;20051;-92
2022/06/13 23:12:36;;;;;;;2.55;0.82;;;12.70;99.90;;;;;;6194691;23;20453;-91
2022/06/13 23:15:02;;;;;;;3.70;0.83;;;12.70;99.90;;;;;;6195124;23;20054;-91
2022/06/13 23:17:28;;;;;;;3.25;1.05;;;12.70;99.90;;;;;;6194854;23;20058;-92
2022/06/13 23:19:54;;;;;;;2.53;0.80;;;12.60;99.90;;;;;;6193529;23;20020;-91
2022/06/13 23:38:57;;;;;;;2.58;1.13;;;12.40;99.90;;;;;;6245244;22;20055;-93
2022/06/13 23:41:23;;;;;;;2.93;1.00;;;12.40;99.90;;;;;;6219883;23;20012;-91
2022/06/13 23:43:56;;;;;;;2.38;0.90;;;12.30;99.90;;;;;;6219557;23;20305;-91
2022/06/13 23:47:53;;;;;;;4.80;0.77;;;12.30;99.90;;;;;;6219666;23;20107;-90
2022/06/13 23:50:36;;;;;;;2.70;0.82;;;12.30;99.90;;;;;;6200441;23;20027;-93
2022/06/13 23:53:13;;;;;;;3.35;0.80;;;12.30;99.90;;;;;;6219499;23;20056;-92
2022/06/13 23:55:40;;;;;;;2.55;0.80;;;12.20;99.90;;;;;;6219545;23;20016;-91
2022/06/13 23:58:31;;;;;;;2.63;0.95;;;12.20;99.90;;;;;;6221295;23;20043;-93
